Time;durP1;ratioP1;P1;durP2;ratioP2;P2;SDS_P1;SDS_P2;PMS_P1;PMS_P2;Temp;Humidity;BMP_temperature;BMP_pressure;BME280_temperature;BME280_humidity;BME280_pressure;Samples;Min_cycle;Max_cycle;Signal;HPM_P1;HPM_P2
2022/05/22 00:01:08;;;;;;;1.30;1.30;;;22.20;66.50;;;;;;5088475;28;43956;-72
2022/05/22 00:03:36;;;;;;;1.33;1.33;;;22.20;66.70;;;;;;5088587;27;43426;-72
2022/05/22 00:06:04;;;;;;;1.30;1.30;;;22.10;66.80;;;;;;5089237;28;43919;-72
2022/05/22 00:08:31;;;;;;;1.30;1.30;;;22.10;66.90;;;;;;5088600;28;43945;-73
2022/05/22 00:11:01;;;;;;;1.50;1.50;;;22.00;67.20;;;;;;5088112;27;44106;-72
2022/05/22 00:13:29;;;;;;;1.40;1.40;;;22.10;69.10;;;;;;5088476;28;43931;-73
2022/05/22 00:18:44;;;;;;;1.80;1.30;;;22.30;68.80;;;;;;5086617;28;46083;-72
2022/05/22 00:21:12;;;;;;;1.23;1.23;;;22.50;67.90;;;;;;5088292;27;43926;-72
2022/05/22 00:23:39;;;;;;;1.40;1.40;;;22.60;67.30;;;;;;5086510;28;44104;-72
2022/05/22 00:26:07;;;;;;;1.07;1.07;;;22.70;67.20;;;;;;5088836;28;43752;-72
2022/05/22 00:28:35;;;;;;;1.40;1.40;;;22.60;67.20;;;;;;5088119;28;44012;-73
2022/05/22 00:31:04;;;;;;;1.10;1.10;;;22.50;67.00;;;;;;5086602;28;45790;-72
2022/05/22 00:33:32;;;;;;;1.20;1.20;;;22.40;66.50;;;;;;5088131;28;43769;-72
2022/05/22 00:36:02;;;;;;;1.30;1.30;;;22.30;66.30;;;;;;5088170;28;43998;-73
2022/05/22 00:38:30;;;;;;;1.20;1.20;;;22.30;66.50;;;;;;5088016;28;44678;-73
2022/05/22 00:40:58;;;;;;;1.20;1.20;;;22.20;68.30;;;;;;5087924;27;43860;-72
2022/05/22 00:43:33;;;;;;;1.20;1.20;;;22.20;69.00;;;;;;5087843;28;43933;-72
2022/05/22 00:46:01;;;;;;;1.20;1.20;;;22.30;68.90;;;;;;5086784;28;43892;-72
2022/05/22 00:48:31;;;;;;;1.13;1.13;;;22.40;68.10;;;;;;5087648;27;43914;-72
2022/05/22 00:51:01;;;;;;;1.20;1.20;;;22.40;68.10;;;;;;5087711;27;43995;-72
2022/05/22 00:53:33;;;;;;;1.17;1.17;;;22.40;67.60;;;;;;5087813;27;43561;-72
2022/05/22 00:56:01;;;;;;;1.20;1.20;;;22.30;66.80;;;;;;5088204;28;43923;-72
2022/05/22 00:58:29;;;;;;;1.10;1.10;;;22.20;66.70;;;;;;5086180;28;46247;-72
2022/05/22 01:00:57;;;;;;;1.30;1.30;;;22.20;66.90;;;;;;5086134;28;44987;-72
2022/05/22 01:03:28;;;;;;;1.20;1.20;;;22.10;67.00;;;;;;5085926;28;43387;-73
2022/05/22 01:06:01;;;;;;;1.30;1.30;;;22.10;67.10;;;;;;5087526;27;43355;-72
2022/05/22 01:08:29;;;;;;;1.20;1.20;;;22.00;67.10;;;;;;5086068;28;45579;-72
2022/05/22 01:11:00;;;;;;;1.20;1.20;;;22.00;69.00;;;;;;5087323;27;43957;-72
2022/05/22 01:13:30;;;;;;;1.20;1.20;;;22.10;69.30;;;;;;5086061;28;44082;-72
2022/05/22 01:15:59;;;;;;;1.20;1.20;;;22.30;69.00;;;;;;5086456;28;43788;-73
2022/05/22 01:18:27;;;;;;;1.27;1.10;;;22.50;68.40;;;;;;5087069;27;44624;-72
2022/05/22 01:20:55;;;;;;;1.20;1.20;;;22.60;67.50;;;;;;5087462;28;43350;-73
2022/05/22 01:23:32;;;;;;;1.10;1.10;;;22.70;67.30;;;;;;5087316;27;43895;-72
2022/05/22 01:26:07;;;;;;;1.33;1.23;;;22.70;67.20;;;;;;5085704;27;43939;-73
2022/05/22 01:28:35;;;;;;;1.10;1.10;;;22.60;67.20;;;;;;5085374;28;45596;-72
2022/05/22 01:31:04;;;;;;;1.20;1.20;;;22.40;66.60;;;;;;5087158;27;43553;-72
2022/05/22 01:33:34;;;;;;;1.13;1.13;;;22.40;66.40;;;;;;5085463;27;43769;-72
2022/05/22 01:36:02;;;;;;;1.10;1.10;;;22.30;66.50;;;;;;5087282;27;44144;-71
2022/05/22 01:38:31;;;;;;;1.20;1.20;;;22.20;66.70;;;;;;5085571;28;45411;-72
2022/05/22 01:40:59;;;;;;;1.17;1.17;;;22.10;68.80;;;;;;5087054;28;43907;-72
2022/05/22 01:43:39;;;;;;;1.10;1.10;;;22.20;69.10;;;;;;5085533;27;44024;-71
2022/05/22 01:46:16;;;;;;;1.10;1.10;;;22.30;68.60;;;;;;5085917;27;43970;-72
2022/05/22 01:48:56;;;;;;;1.30;1.30;;;22.40;68.40;;;;;;5085083;27;44759;-71
2022/05/22 01:51:26;;;;;;;1.20;1.20;;;22.40;68.00;;;;;;5085882;27;43924;-70
2022/05/22 01:53:58;;;;;;;1.10;1.10;;;22.30;67.20;;;;;;5085549;28;43957;-72
2022/05/22 01:56:26;;;;;;;1.30;1.30;;;22.20;66.80;;;;;;5086992;27;43919;-73
2022/05/22 01:58:54;;;;;;;0.90;0.90;;;22.20;67.00;;;;;;5085669;27;45634;-72
2022/05/22 02:01:31;;;;;;;1.20;1.20;;;22.10;67.10;;;;;;5085277;28;45008;-71
2022/05/22 02:04:04;;;;;;;1.03;1.03;;;22.00;67.20;;;;;;5085150;28;44038;-72
2022/05/22 02:06:34;;;;;;;1.20;1.20;;;22.00;67.30;;;;;;5085574;28;43465;-72
2022/05/22 02:09:11;;;;;;;1.10;1.10;;;22.00;69.10;;;;;;5085207;28;44732;-73
2022/05/22 02:11:46;;;;;;;1.10;1.10;;;22.00;69.50;;;;;;5085143;28;44016;-73
2022/05/22 02:14:17;;;;;;;1.00;1.00;;;22.20;69.00;;;;;;5085113;27;44029;-72
2022/05/22 02:16:49;;;;;;;1.07;1.07;;;22.40;68.30;;;;;;5087010;27;43806;-72
2022/05/22 02:19:17;;;;;;;1.00;1.00;;;22.60;67.80;;;;;;5088790;27;43927;-73
2022/05/22 02:21:45;;;;;;;1.10;1.10;;;22.60;67.40;;;;;;5090317;28;43961;-73
2022/05/22 02:24:16;;;;;;;1.10;1.10;;;22.70;67.30;;;;;;5088770;27;43973;-72
2022/05/22 02:26:57;;;;;;;1.07;1.07;;;22.60;67.30;;;;;;5089089;27;43585;-71
2022/05/22 02:29:25;;;;;;;0.90;0.90;;;22.50;66.60;;;;;;5088888;27;44012;-72
2022/05/22 02:31:53;;;;;;;1.10;1.10;;;22.30;66.40;;;;;;5088348;27;43974;-72
2022/05/22 02:34:21;;;;;;;1.10;1.10;;;22.20;66.60;;;;;;5090374;27;43804;-72
2022/05/22 02:36:49;;;;;;;1.00;1.00;;;22.20;68.00;;;;;;5088525;28;43950;-72
2022/05/22 02:39:20;;;;;;;1.10;1.10;;;22.20;69.20;;;;;;5088335;27;45068;-72
2022/05/22 02:41:48;;;;;;;1.10;1.10;;;22.30;68.70;;;;;;5088126;28;45094;-72
2022/05/22 02:44:16;;;;;;;1.07;1.07;;;22.40;68.20;;;;;;5088566;28;43954;-72
2022/05/22 02:46:44;;;;;;;0.90;0.90;;;22.40;68.20;;;;;;5089851;28;43934;-73
2022/05/22 02:49:12;;;;;;;1.00;1.00;;;22.40;67.80;;;;;;5088141;28;46691;-72
2022/05/22 02:51:40;;;;;;;1.10;1.10;;;22.30;66.90;;;;;;5087879;28;44735;-72
2022/05/22 02:54:09;;;;;;;1.00;1.00;;;22.20;66.90;;;;;;5088413;28;43435;-73
2022/05/22 02:56:59;;;;;;;1.00;1.00;;;22.10;67.00;;;;;;5089385;28;43881;-72
2022/05/22 02:59:34;;;;;;;1.00;1.00;;;22.10;67.20;;;;;;5091388;27;46950;-72
2022/05/22 03:02:27;;;;;;;1.10;1.10;;;22.00;67.40;;;;;;5091103;27;44050;-72
2022/05/22 03:04:55;;;;;;;1.00;1.00;;;22.00;67.80;;;;;;5091700;27;44100;-72
2022/05/22 03:07:23;;;;;;;1.20;1.20;;;22.00;69.30;;;;;;5092014;27;44030;-73
2022/05/22 03:09:53;;;;;;;1.00;1.00;;;22.00;69.30;;;;;;5091620;27;43851;-72
2022/05/22 03:12:24;;;;;;;1.30;1.30;;;22.30;69.00;;;;;;5091220;27;44763;-72
2022/05/22 03:14:57;;;;;;;1.00;1.00;;;22.40;68.20;;;;;;5091440;27;43974;-73
2022/05/22 03:17:27;;;;;;;1.00;1.00;;;22.60;67.60;;;;;;5091430;27;43872;-72
2022/05/22 03:19:57;;;;;;;1.10;1.10;;;22.60;67.40;;;;;;5091079;27;46115;-73
2022/05/22 03:22:25;;;;;;;1.30;1.23;;;22.60;67.20;;;;;;5091346;27;44516;-73
2022/05/22 03:24:53;;;;;;;1.03;1.03;;;22.50;67.10;;;;;;5091381;27;43925;-73
2022/05/22 03:27:22;;;;;;;0.93;0.93;;;22.40;66.40;;;;;;5110068;27;43977;-72
2022/05/22 03:29:53;;;;;;;1.17;1.17;;;22.30;66.50;;;;;;5090844;27;46605;-71
2022/05/22 03:32:22;;;;;;;0.97;0.97;;;22.20;66.70;;;;;;5091031;27;44067;-72
2022/05/22 03:34:55;;;;;;;1.00;1.00;;;22.10;68.40;;;;;;5085397;27;44265;-73
2022/05/22 03:37:25;;;;;;;0.97;0.97;;;22.20;69.30;;;;;;5071187;28;43510;-71
2022/05/22 03:39:57;;;;;;;1.00;1.00;;;22.30;68.90;;;;;;5070568;28;44098;-73
2022/05/22 03:42:26;;;;;;;1.00;1.00;;;22.30;68.30;;;;;;5089336;28;43895;-72
2022/05/22 03:44:55;;;;;;;1.10;1.10;;;22.30;68.20;;;;;;5070409;28;43960;-72
2022/05/22 03:47:23;;;;;;;0.83;0.83;;;22.30;67.80;;;;;;5071150;28;43602;-73
2022/05/22 03:50:08;;;;;;;1.20;1.20;;;22.20;67.00;;;;;;5070413;28;44054;-72
2022/05/22 03:52:37;;;;;;;1.03;1.03;;;22.10;66.90;;;;;;5070270;28;46016;-72
2022/05/22 03:55:10;;;;;;;0.90;0.90;;;22.00;67.00;;;;;;5070518;28;44071;-72
2022/05/22 03:57:39;;;;;;;0.97;0.97;;;22.00;67.20;;;;;;5070729;28;43955;-72
2022/05/22 04:00:10;;;;;;;1.00;1.00;;;22.00;67.40;;;;;;5070317;28;45664;-72
2022/05/22 04:02:42;;;;;;;1.10;1.10;;;22.00;68.30;;;;;;5084851;28;44033;-73
2022/05/22 04:05:13;;;;;;;1.13;1.13;;;22.00;69.60;;;;;;5070066;28;43981;-72
2022/05/22 04:07:41;;;;;;;1.00;1.00;;;22.10;69.50;;;;;;5070564;28;43946;-72
2022/05/22 04:10:11;;;;;;;1.00;1.00;;;22.30;68.80;;;;;;5070131;28;46562;-72
2022/05/22 04:12:42;;;;;;;1.23;1.23;;;22.40;68.30;;;;;;5070142;28;45033;-73
2022/05/22 04:15:11;;;;;;;1.10;1.10;;;22.50;67.60;;;;;;5088554;28;43899;-72
2022/05/22 04:17:39;;;;;;;1.20;1.20;;;22.60;67.50;;;;;;5070727;28;43387;-72
2022/05/22 04:20:18;;;;;;;0.97;0.97;;;22.60;67.60;;;;;;5069785;28;44590;-73
2022/05/22 04:25:33;;;;;;;1.00;1.00;;;22.30;66.50;;;;;;5069848;28;43916;-72
2022/05/22 04:28:04;;;;;;;1.20;1.20;;;22.20;66.60;;;;;;5070302;28;44091;-72
2022/05/22 04:30:33;;;;;;;1.00;1.00;;;22.20;66.90;;;;;;5069532;28;45490;-73
2022/05/22 04:33:08;;;;;;;1.00;1.00;;;22.10;68.90;;;;;;5069296;28;43942;-73
2022/05/22 04:35:37;;;;;;;1.10;1.10;;;22.10;69.50;;;;;;5069253;28;43932;-72
2022/05/22 04:38:06;;;;;;;1.07;1.07;;;22.30;68.90;;;;;;5069951;28;43583;-72
2022/05/22 04:40:35;;;;;;;1.10;1.10;;;22.30;68.50;;;;;;5068923;28;46917;-72
2022/05/22 04:43:05;;;;;;;1.17;1.17;;;22.30;68.20;;;;;;5069187;28;44873;-73
2022/05/22 04:45:35;;;;;;;1.10;1.10;;;22.30;67.40;;;;;;5069570;28;43963;-73
2022/05/22 04:48:06;;;;;;;1.03;1.03;;;22.20;67.00;;;;;;5087984;28;43368;-72
2022/05/22 04:50:37;;;;;;;1.07;1.07;;;22.10;67.00;;;;;;5069421;28;44949;-71
2022/05/22 04:53:27;;;;;;;1.10;1.10;;;22.10;67.20;;;;;;5076493;28;43471;-72
2022/05/22 04:56:17;;;;;;;0.97;0.97;;;22.00;67.30;;;;;;5069521;28;43997;-72
2022/05/22 04:58:51;;;;;;;1.40;1.30;;;22.00;67.40;;;;;;5069835;28;44269;-72
2022/05/22 05:01:24;;;;;;;1.20;1.20;;;21.90;69.00;;;;;;5069738;28;45727;-73
2022/05/22 05:04:06;;;;;;;1.07;1.07;;;22.00;69.50;;;;;;5069216;28;44368;-73
2022/05/22 05:06:49;;;;;;;1.10;1.10;;;22.20;69.30;;;;;;5069400;28;44062;-73
2022/05/22 05:09:35;;;;;;;1.07;1.07;;;22.40;68.80;;;;;;5085087;28;44012;-73
2022/05/22 05:12:11;;;;;;;1.10;1.10;;;22.50;67.90;;;;;;5069002;28;45393;-73
2022/05/22 05:14:41;;;;;;;1.10;1.10;;;22.60;67.70;;;;;;5069073;28;44785;-73
2022/05/22 05:17:09;;;;;;;1.10;1.10;;;22.60;67.60;;;;;;5069450;28;43970;-73
2022/05/22 05:19:39;;;;;;;1.23;1.23;;;22.50;67.50;;;;;;5069272;28;43951;-72
2022/05/22 05:22:07;;;;;;;1.30;1.30;;;22.30;66.50;;;;;;5068993;28;44074;-73
2022/05/22 05:24:37;;;;;;;1.20;1.20;;;22.20;66.60;;;;;;5068932;28;44054;-72
2022/05/22 05:27:07;;;;;;;1.23;1.23;;;22.10;66.80;;;;;;5069153;28;44067;-71
2022/05/22 05:30:09;;;;;;;1.27;1.27;;;22.10;67.60;;;;;;5088159;28;44020;-73
2022/05/22 05:32:47;;;;;;;1.10;1.10;;;22.10;69.50;;;;;;5068839;28;45991;-71
2022/05/22 05:35:40;;;;;;;1.13;1.13;;;22.20;69.10;;;;;;5086763;28;43960;-73
2022/05/22 05:38:09;;;;;;;0.90;0.90;;;22.30;68.80;;;;;;5069201;28;44156;-72
2022/05/22 05:40:39;;;;;;;1.10;1.10;;;22.30;68.20;;;;;;5069261;28;43490;-72
2022/05/22 05:43:08;;;;;;;1.10;1.10;;;22.20;67.10;;;;;;5068765;28;43966;-72
2022/05/22 05:45:38;;;;;;;1.00;1.00;;;22.10;66.90;;;;;;5068567;28;43936;-71
2022/05/22 05:48:06;;;;;;;1.00;1.00;;;22.10;67.10;;;;;;5068741;28;43874;-72
2022/05/22 05:50:37;;;;;;;1.10;1.10;;;22.00;67.20;;;;;;5069213;28;43930;-72
2022/05/22 05:53:12;;;;;;;1.20;1.20;;;21.90;67.30;;;;;;5070796;28;46441;-72
2022/05/22 05:55:47;;;;;;;1.07;1.07;;;21.90;67.50;;;;;;5087642;28;44040;-72
2022/05/22 05:58:46;;;;;;;1.20;1.20;;;21.90;67.70;;;;;;5072849;28;43995;-72
2022/05/22 06:01:42;;;;;;;0.90;0.90;;;21.90;69.60;;;;;;5088395;28;43953;-72
2022/05/22 06:04:10;;;;;;;1.10;1.10;;;22.10;70.30;;;;;;5072049;28;43956;-73
2022/05/22 06:06:38;;;;;;;1.10;1.10;;;22.20;69.00;;;;;;5090372;28;44023;-73
2022/05/22 06:09:06;;;;;;;1.00;1.00;;;22.30;68.30;;;;;;5090714;28;43271;-72
2022/05/22 06:11:38;;;;;;;0.97;0.97;;;22.40;67.90;;;;;;5072532;28;44014;-72
2022/05/22 06:14:18;;;;;;;1.00;1.00;;;22.50;67.80;;;;;;5072022;28;46069;-73
2022/05/22 06:16:50;;;;;;;1.03;1.03;;;22.30;67.00;;;;;;5071906;28;44927;-72
2022/05/22 06:19:53;;;;;;;1.00;1.00;;;22.20;66.60;;;;;;5072162;28;43976;-72
2022/05/22 06:22:08;;;;;;;1.00;1.00;;;22.10;66.70;;;;;;5072147;28;43963;-72
2022/05/22 06:24:37;;;;;;;1.00;1.00;;;22.10;67.10;;;;;;5071659;28;43829;-72
2022/05/22 06:27:28;;;;;;;1.00;1.00;;;22.00;67.30;;;;;;5060263;28;44105;-72
2022/05/22 06:30:12;;;;;;;1.10;1.10;;;22.00;69.30;;;;;;5090211;28;44049;-72
2022/05/22 06:33:00;;;;;;;1.00;1.00;;;22.10;69.30;;;;;;5087764;28;43383;-73
2022/05/22 06:35:39;;;;;;;1.00;1.00;;;22.20;68.40;;;;;;5071256;28;46008;-72
2022/05/22 06:41:26;;;;;;;0.93;0.93;;;22.20;67.10;;;;;;5071774;28;43814;-71
2022/05/22 06:44:23;;;;;;;1.03;1.03;;;22.10;67.00;;;;;;5076365;28;44101;-73
2022/05/22 06:47:14;;;;;;;1.03;1.03;;;22.00;67.20;;;;;;5068897;28;44697;-72
2022/05/22 06:50:11;;;;;;;1.10;1.10;;;21.90;67.40;;;;;;5090154;28;44395;-72
2022/05/22 06:52:48;;;;;;;1.00;1.00;;;21.80;67.50;;;;;;5071963;28;44220;-72
2022/05/22 06:55:28;;;;;;;0.93;0.93;;;21.80;67.70;;;;;;5072180;28;43912;-72
2022/05/22 06:58:20;;;;;;;1.03;1.03;;;21.80;69.20;;;;;;5071494;28;46698;-72
2022/05/22 07:01:08;;;;;;;1.00;1.00;;;21.90;69.60;;;;;;5089171;28;44071;-72
2022/05/22 07:03:58;;;;;;;0.97;0.97;;;22.00;69.30;;;;;;5070623;28;43908;-72
2022/05/22 07:06:46;;;;;;;0.90;0.90;;;22.30;68.70;;;;;;5086772;28;44057;-72
2022/05/22 07:09:35;;;;;;;0.90;0.90;;;22.40;67.80;;;;;;5071318;28;45473;-73
2022/05/22 07:12:22;;;;;;;1.00;1.00;;;22.50;67.70;;;;;;5071223;28;45395;-72
2022/05/22 07:15:13;;;;;;;1.10;1.10;;;22.40;67.40;;;;;;5088597;28;44012;-72
2022/05/22 07:17:43;;;;;;;1.10;1.10;;;22.30;66.60;;;;;;5086932;28;43809;-72
2022/05/22 07:20:30;;;;;;;1.00;1.00;;;22.10;66.60;;;;;;5086605;28;44391;-73
2022/05/22 07:23:10;;;;;;;0.93;0.93;;;22.10;66.90;;;;;;5071237;28;45829;-72
2022/05/22 07:25:51;;;;;;;0.90;0.90;;;22.00;67.10;;;;;;5086416;28;44012;-73
2022/05/22 07:28:54;;;;;;;1.10;1.10;;;21.90;69.00;;;;;;5071901;28;43944;-72
2022/05/22 07:31:41;;;;;;;1.00;1.00;;;22.00;69.40;;;;;;5086519;28;43671;-73
2022/05/22 07:34:35;;;;;;;1.33;1.20;;;22.20;68.90;;;;;;5088784;28;44143;-72
2022/05/22 07:37:22;;;;;;;1.20;1.20;;;22.20;68.30;;;;;;5087084;28;43951;-72
2022/05/22 07:40:06;;;;;;;1.80;1.70;;;22.20;67.30;;;;;;5071596;28;43972;-72
2022/05/22 07:43:12;;;;;;;1.40;1.40;;;22.10;66.90;;;;;;5006660;28;44605;-73
2022/05/22 07:46:04;;;;;;;1.47;1.47;;;22.00;67.00;;;;;;4990150;28;44005;-71
2022/05/22 07:48:45;;;;;;;1.53;1.53;;;21.90;67.20;;;;;;5049547;28;44235;-72
2022/05/22 07:51:44;;;;;;;1.80;1.80;;;21.90;67.50;;;;;;5071400;28;43985;-72
2022/05/22 07:54:35;;;;;;;1.60;1.60;;;21.80;67.50;;;;;;5086194;28;43555;-73
2022/05/22 07:57:23;;;;;;;1.60;1.60;;;21.80;68.40;;;;;;5086447;28;43853;-72
2022/05/22 07:59:56;;;;;;;1.67;1.67;;;21.80;69.30;;;;;;5089403;28;43351;-73
2022/05/22 08:02:42;;;;;;;2.50;2.47;;;22.00;69.50;;;;;;5086321;28;43923;-72
2022/05/22 08:05:17;;;;;;;2.10;2.10;;;22.20;68.80;;;;;;5070294;28;43976;-72
2022/05/22 08:07:48;;;;;;;2.27;2.17;;;22.30;68.20;;;;;;5070399;28;43973;-72
2022/05/22 08:10:27;;;;;;;2.10;2.00;;;22.50;67.70;;;;;;5070516;28;43972;-73
2022/05/22 08:13:03;;;;;;;2.23;2.10;;;22.50;67.70;;;;;;5070774;28;44623;-72
2022/05/22 08:15:32;;;;;;;2.10;2.00;;;22.40;66.80;;;;;;5087337;27;43957;-73
2022/05/22 08:18:13;;;;;;;2.20;2.10;;;22.30;66.50;;;;;;5070064;28;44352;-72
2022/05/22 08:20:43;;;;;;;2.03;2.03;;;22.10;66.60;;;;;;5070089;28;43874;-71
2022/05/22 08:23:17;;;;;;;1.90;1.90;;;22.10;66.90;;;;;;5070527;28;43971;-72
2022/05/22 08:25:49;;;;;;;2.27;2.23;;;22.00;67.10;;;;;;5087804;28;43970;-72
2022/05/22 08:28:19;;;;;;;2.37;2.17;;;21.90;69.00;;;;;;5069713;28;45353;-72
2022/05/22 08:30:47;;;;;;;2.10;2.00;;;22.00;69.40;;;;;;5088137;28;43371;-72
2022/05/22 08:33:16;;;;;;;2.17;2.07;;;22.10;68.90;;;;;;5070612;28;44159;-72
2022/05/22 08:35:44;;;;;;;1.87;1.77;;;22.20;68.60;;;;;;5088209;28;43857;-72
2022/05/22 08:38:12;;;;;;;1.80;1.80;;;22.20;67.70;;;;;;5088335;28;44210;-73
2022/05/22 08:40:47;;;;;;;2.00;2.00;;;22.10;66.90;;;;;;5070066;28;44432;-72
2022/05/22 08:43:16;;;;;;;1.90;1.80;;;22.00;67.00;;;;;;5088740;28;43943;-73
2022/05/22 08:45:47;;;;;;;1.93;1.83;;;21.90;66.90;;;;;;5087851;28;43860;-73
2022/05/22 08:48:17;;;;;;;1.77;1.77;;;21.90;67.40;;;;;;5087893;28;43798;-72
2022/05/22 08:50:46;;;;;;;1.80;1.80;;;21.80;67.50;;;;;;5088298;28;44006;-72
2022/05/22 08:53:19;;;;;;;1.60;1.60;;;21.80;67.60;;;;;;5088523;28;43895;-74
2022/05/22 09:01:28;;;;;;;2.30;2.20;;;21.90;69.20;;;;;;5088191;28;43963;-72
2022/05/22 09:03:58;;;;;;;2.20;2.10;;;22.10;68.40;;;;;;5088251;28;44046;-72
2022/05/22 09:06:28;;;;;;;2.20;2.10;;;22.30;67.80;;;;;;5087616;28;43908;-72
2022/05/22 09:08:56;;;;;;;2.23;1.93;;;22.40;67.20;;;;;;5087719;28;44050;-73
2022/05/22 09:11:29;;;;;;;2.40;2.30;;;22.40;66.80;;;;;;5088146;28;43383;-73
2022/05/22 09:13:59;;;;;;;2.30;2.10;;;22.30;66.10;;;;;;5088147;28;44039;-72
2022/05/22 09:16:30;;;;;;;2.60;2.13;;;22.20;66.10;;;;;;5069168;28;45336;-73
2022/05/22 09:18:59;;;;;;;2.67;2.00;;;22.10;66.30;;;;;;5068956;28;44760;-72
2022/05/22 09:21:31;;;;;;;2.07;1.97;;;22.00;66.60;;;;;;5087920;28;43351;-72
2022/05/22 09:24:03;;;;;;;2.20;1.73;;;21.90;66.80;;;;;;5069313;28;44222;-73
2022/05/22 09:26:41;;;;;;;2.00;1.90;;;21.90;68.50;;;;;;5087090;28;43933;-72
2022/05/22 09:29:35;;;;;;;1.90;1.80;;;21.90;69.40;;;;;;5087255;28;43907;-72
2022/05/22 09:32:10;;;;;;;2.10;2.00;;;22.10;69.10;;;;;;5068801;28;43960;-72
2022/05/22 09:34:40;;;;;;;1.73;1.70;;;22.10;68.50;;;;;;5088047;28;44011;-73
2022/05/22 09:37:14;;;;;;;2.73;1.80;;;22.10;67.40;;;;;;5087204;28;43996;-73
2022/05/22 09:40:00;;;;;;;1.53;1.53;;;22.00;67.00;;;;;;5086826;28;43501;-72
2022/05/22 09:42:36;;;;;;;1.60;1.60;;;22.00;67.10;;;;;;5087769;28;43897;-73
2022/05/22 09:45:20;;;;;;;1.80;1.80;;;21.90;67.40;;;;;;5087676;28;43872;-72
2022/05/22 09:48:05;;;;;;;1.60;1.60;;;21.80;67.50;;;;;;5087043;28;45069;-72
2022/05/22 09:50:53;;;;;;;1.90;1.90;;;21.80;67.60;;;;;;5068870;28;44486;-73
2022/05/22 09:53:26;;;;;;;1.33;1.33;;;21.70;67.70;;;;;;5087502;28;44011;-72
2022/05/22 09:55:54;;;;;;;1.40;1.40;;;21.70;68.30;;;;;;5087928;28;43921;-72
2022/05/22 09:58:49;;;;;;;1.73;1.63;;;21.70;69.30;;;;;;5087272;28;43740;-72
2022/05/22 10:01:21;;;;;;;1.40;1.40;;;21.90;69.30;;;;;;5087109;28;44055;-73
2022/05/22 10:03:57;;;;;;;1.53;1.53;;;22.10;68.90;;;;;;5087067;28;44046;-72
2022/05/22 10:06:32;;;;;;;1.80;1.70;;;22.30;68.70;;;;;;5087507;28;43943;-72
2022/05/22 10:09:10;;;;;;;2.30;1.60;;;22.40;68.10;;;;;;5086938;28;45005;-72
2022/05/22 10:11:41;;;;;;;1.60;1.60;;;22.40;67.80;;;;;;5086856;28;44019;-72
2022/05/22 10:14:18;;;;;;;1.83;1.73;;;22.30;67.00;;;;;;5086951;28;43996;-73
2022/05/22 10:16:50;;;;;;;1.90;1.80;;;22.20;66.70;;;;;;5087150;28;43931;-72
2022/05/22 10:19:28;;;;;;;1.87;1.77;;;22.10;66.90;;;;;;5086689;28;43800;-72
2022/05/22 10:21:58;;;;;;;1.80;1.70;;;22.00;67.10;;;;;;5086605;28;43812;-73
2022/05/22 10:24:39;;;;;;;5.23;1.97;;;21.90;67.10;;;;;;5086986;28;43955;-71
2022/05/22 10:27:24;;;;;;;5.47;1.97;;;21.90;69.30;;;;;;5086585;28;43969;-72
2022/05/22 10:29:56;;;;;;;3.20;1.97;;;22.00;67.60;;;;;;5086653;28;43979;-72
2022/05/22 10:32:26;;;;;;;2.10;1.50;;;22.10;67.70;;;;;;5086795;28;43889;-72
2022/05/22 10:34:57;;;;;;;1.87;1.80;;;22.20;67.60;;;;;;5086628;28;44054;-73
2022/05/22 10:37:26;;;;;;;1.50;1.50;;;22.10;66.70;;;;;;5087359;28;43721;-72
2022/05/22 10:39:54;;;;;;;1.80;1.80;;;22.00;66.40;;;;;;5088211;28;43939;-72
2022/05/22 10:45:18;;;;;;;3.00;1.97;;;21.90;66.20;;;;;;5090045;28;43837;-73
2022/05/22 10:47:46;;;;;;;1.90;1.73;;;21.80;66.00;;;;;;5090351;28;43842;-72
2022/05/22 10:50:18;;;;;;;1.97;1.73;;;21.80;65.90;;;;;;5089895;28;43971;-72
2022/05/22 10:52:49;;;;;;;3.77;1.60;;;21.70;65.60;;;;;;5089870;28;43495;-73
2022/05/22 10:55:22;;;;;;;2.03;1.93;;;21.70;65.50;;;;;;5089754;28;43398;-72
2022/05/22 10:57:54;;;;;;;2.03;1.50;;;21.70;66.70;;;;;;5090219;28;43955;-73
2022/05/22 11:00:24;;;;;;;1.90;1.80;;;21.90;65.80;;;;;;5090011;28;43572;-71
2022/05/22 11:02:55;;;;;;;3.23;1.50;;;22.00;65.50;;;;;;5089902;28;43969;-72
2022/05/22 11:05:27;;;;;;;4.90;1.70;;;22.20;65.80;;;;;;5090021;28;43931;-72
2022/05/22 11:07:56;;;;;;;4.40;1.80;;;22.30;65.50;;;;;;5072051;28;43974;-73
2022/05/22 11:10:26;;;;;;;1.80;1.70;;;22.30;65.10;;;;;;5089483;28;43939;-72
2022/05/22 11:13:03;;;;;;;1.73;1.37;;;22.20;64.10;;;;;;5089588;28;43967;-72
2022/05/22 11:15:31;;;;;;;1.40;1.40;;;22.10;63.80;;;;;;5089522;28;43963;-72
2022/05/22 11:18:04;;;;;;;2.67;1.50;;;22.00;64.00;;;;;;5089811;28;43408;-72
2022/05/22 11:20:33;;;;;;;1.80;1.70;;;21.90;64.20;;;;;;5089559;28;43901;-72
2022/05/22 11:23:07;;;;;;;1.67;1.57;;;21.90;64.50;;;;;;5089241;28;43324;-73
2022/05/22 11:25:40;;;;;;;4.17;1.73;;;21.80;65.40;;;;;;5070867;28;44054;-73
2022/05/22 11:28:15;;;;;;;1.90;1.70;;;21.80;66.80;;;;;;5089503;28;44031;-72
2022/05/22 11:30:47;;;;;;;1.90;1.77;;;21.90;67.00;;;;;;5089021;28;43912;-73
2022/05/22 11:33:32;;;;;;;2.20;1.80;;;22.00;66.80;;;;;;5089141;28;44268;-72
2022/05/22 11:36:07;;;;;;;2.37;1.67;;;22.10;65.70;;;;;;5070680;28;44186;-73
2022/05/22 11:38:53;;;;;;;2.53;2.10;;;22.00;64.80;;;;;;5071146;28;43999;-73
2022/05/22 11:41:31;;;;;;;2.53;2.13;;;21.90;64.60;;;;;;5089652;28;43948;-72
2022/05/22 11:44:14;;;;;;;2.20;2.10;;;21.90;64.90;;;;;;5089751;28;44045;-72
2022/05/22 11:46:50;;;;;;;2.43;1.90;;;21.80;65.10;;;;;;5089508;28;44006;-72
2022/05/22 11:49:24;;;;;;;1.97;1.87;;;21.70;65.20;;;;;;5091146;28;43503;-72
2022/05/22 11:52:12;;;;;;;2.20;2.00;;;21.70;65.40;;;;;;5089134;27;43900;-71
2022/05/22 11:54:47;;;;;;;1.70;1.70;;;21.70;65.80;;;;;;5070859;28;44757;-72
2022/05/22 11:57:22;;;;;;;2.10;2.00;;;21.70;67.30;;;;;;5089370;28;44046;-72
2022/05/22 12:00:11;;;;;;;1.93;1.83;;;21.80;67.50;;;;;;5090054;28;43990;-72
2022/05/22 12:02:46;;;;;;;2.43;1.97;;;22.00;67.10;;;;;;5085724;28;43942;-72
2022/05/22 12:05:22;;;;;;;2.20;2.00;;;22.20;66.60;;;;;;5070271;28;46539;-72
2022/05/22 12:08:11;;;;;;;2.33;2.13;;;22.30;66.00;;;;;;5088743;28;43943;-72
2022/05/22 12:10:41;;;;;;;2.00;1.90;;;22.30;65.60;;;;;;5068113;28;43952;-72
2022/05/22 12:13:13;;;;;;;1.90;1.80;;;22.20;64.60;;;;;;5088667;28;43884;-72
2022/05/22 12:15:45;;;;;;;1.90;1.80;;;22.10;64.20;;;;;;5088525;28;43941;-72
2022/05/22 12:18:23;;;;;;;1.63;1.60;;;22.00;64.30;;;;;;5088837;28;43949;-72
2022/05/22 12:20:56;;;;;;;1.73;1.70;;;21.90;64.50;;;;;;5089252;28;43937;-72
2022/05/22 12:23:27;;;;;;;2.10;2.00;;;21.90;64.70;;;;;;5088688;28;43967;-72
2022/05/22 12:25:56;;;;;;;2.00;1.90;;;21.80;66.80;;;;;;5088589;28;43903;-73
2022/05/22 12:28:34;;;;;;;1.90;1.80;;;21.90;67.00;;;;;;5088800;28;43391;-72
2022/05/22 12:31:04;;;;;;;1.80;1.70;;;22.00;66.70;;;;;;5070140;28;44157;-73
2022/05/22 12:33:38;;;;;;;1.57;1.47;;;22.10;65.90;;;;;;5088295;28;43615;-72
2022/05/22 12:36:06;;;;;;;1.70;1.60;;;22.10;65.00;;;;;;5069508;28;44730;-72
2022/05/22 12:38:39;;;;;;;1.83;1.80;;;22.00;64.50;;;;;;5088407;28;43997;-72
2022/05/22 12:41:10;;;;;;;1.73;1.70;;;21.90;64.40;;;;;;5088608;28;43801;-72
2022/05/22 12:43:38;;;;;;;1.70;1.60;;;21.80;64.50;;;;;;5088158;28;43990;-72
2022/05/22 12:46:06;;;;;;;1.80;1.70;;;21.80;64.60;;;;;;5087996;28;43947;-72
2022/05/22 12:48:38;;;;;;;2.00;1.90;;;21.70;64.70;;;;;;5087744;28;43879;-73
2022/05/22 12:51:16;;;;;;;1.60;1.60;;;21.70;64.80;;;;;;5088512;28;43910;-73
2022/05/22 12:53:47;;;;;;;1.40;1.40;;;21.70;66.20;;;;;;5087897;28;43912;-72
2022/05/22 12:56:20;;;;;;;1.40;1.40;;;21.70;67.30;;;;;;5087537;28;44108;-73
2022/05/22 12:58:52;;;;;;;1.50;1.50;;;21.90;67.00;;;;;;5088130;28;43947;-73
2022/05/22 13:01:24;;;;;;;1.60;1.60;;;22.10;66.70;;;;;;5088124;28;44043;-72
2022/05/22 13:03:53;;;;;;;1.57;1.57;;;22.30;66.00;;;;;;5087113;28;43890;-73
2022/05/22 13:06:22;;;;;;;1.57;1.50;;;22.30;65.60;;;;;;5087968;28;44051;-72
2022/05/22 13:08:59;;;;;;;1.50;1.50;;;22.30;65.30;;;;;;5088280;28;43828;-73
2022/05/22 13:11:31;;;;;;;1.60;1.60;;;22.20;64.40;;;;;;5088186;28;44047;-72
2022/05/22 13:14:22;;;;;;;1.40;1.40;;;22.10;64.00;;;;;;5087752;28;45422;-72
2022/05/22 13:16:51;;;;;;;1.43;1.33;;;22.00;64.20;;;;;;5087693;28;44664;-71
2022/05/22 13:19:20;;;;;;;1.70;1.60;;;21.90;64.40;;;;;;5087528;28;43419;-73
2022/05/22 13:21:48;;;;;;;1.60;1.60;;;21.90;64.60;;;;;;5088108;28;43405;-73
2022/05/22 13:24:25;;;;;;;1.50;1.50;;;21.80;66.80;;;;;;5068924;28;44217;-73
2022/05/22 13:27:02;;;;;;;1.60;1.60;;;21.90;67.20;;;;;;5069293;28;46289;-72
2022/05/22 13:29:35;;;;;;;1.60;1.60;;;22.00;67.00;;;;;;5087494;28;43379;-72
2022/05/22 13:32:04;;;;;;;1.67;1.60;;;22.10;66.50;;;;;;5087737;28;43920;-73
2022/05/22 13:34:33;;;;;;;1.57;1.50;;;22.10;65.60;;;;;;5087619;28;43936;-73
2022/05/22 13:37:02;;;;;;;2.20;1.40;;;22.00;64.70;;;;;;5086856;28;43963;-72
2022/05/22 13:39:46;;;;;;;1.40;1.40;;;21.90;64.70;;;;;;5087378;28;44150;-72
2022/05/22 13:42:39;;;;;;;1.20;1.13;;;21.90;64.90;;;;;;5069385;28;43594;-72